sensor_id;sensor_type;location;lat;lon;timestamp;pressure;altitude;pressure_sealevel;temperature;humidity
68654;BME280;55636;51.108;13.622;2023-04-03T00:00:04;101452.25;;;3.00;50.21
68654;BME280;55636;51.108;13.622;2023-04-03T00:01:07;101449.72;;;2.99;50.07
68654;BME280;55636;51.108;13.622;2023-04-03T00:02:11;101451.59;;;2.98;50.18
68654;BME280;55636;51.108;13.622;2023-04-03T00:03:13;101453.47;;;2.98;50.10
68654;BME280;55636;51.108;13.622;2023-04-03T00:04:16;101448.88;;;2.98;50.25
68654;BME280;55636;51.108;13.622;2023-04-03T00:05:18;101452.44;;;2.99;50.18
68654;BME280;55636;51.108;13.622;2023-04-03T00:06:21;101457.06;;;2.98;50.26
68654;BME280;55636;51.108;13.622;2023-04-03T00:07:24;101459.97;;;2.97;50.21
68654;BME280;55636;51.108;13.622;2023-04-03T00:08:27;101456.38;;;2.96;50.12
68654;BME280;55636;51.108;13.622;2023-04-03T00:09:32;101454.69;;;2.95;50.14
68654;BME280;55636;51.108;13.622;2023-04-03T00:10:36;101448.19;;;2.96;50.16
68654;BME280;55636;51.108;13.622;2023-04-03T00:11:40;101454.22;;;2.91;50.06
68654;BME280;55636;51.108;13.622;2023-04-03T00:12:42;101459.69;;;2.91;50.00
68654;BME280;55636;51.108;13.622;2023-04-03T00:13:45;101460.69;;;2.90;50.04
68654;BME280;55636;51.108;13.622;2023-04-03T00:14:47;101462.41;;;2.91;50.07
68654;BME280;55636;51.108;13.622;2023-04-03T00:15:51;101468.22;;;2.88;50.13
68654;BME280;55636;51.108;13.622;2023-04-03T00:16:53;101459.19;;;2.88;50.30
68654;BME280;55636;51.108;13.622;2023-04-03T00:17:56;101464.66;;;2.88;50.30
68654;BME280;55636;51.108;13.622;2023-04-03T00:18:59;101459.19;;;2.88;50.09
68654;BME280;55636;51.108;13.622;2023-04-03T00:20:03;101467.38;;;2.88;50.20
68654;BME280;55636;51.108;13.622;2023-04-03T00:21:06;101465.66;;;2.87;50.35
68654;BME280;55636;51.108;13.622;2023-04-03T00:22:08;101470.28;;;2.86;50.14
68654;BME280;55636;51.108;13.622;2023-04-03T00:23:11;101461.63;;;2.83;49.96
68654;BME280;55636;51.108;13.622;2023-04-03T00:24:13;101476.09;;;2.83;50.24
68654;BME280;55636;51.108;13.622;2023-04-03T00:25:15;101476.09;;;2.83;50.17
68654;BME280;55636;51.108;13.622;2023-04-03T00:26:18;101472.53;;;2.83;49.93
68654;BME280;55636;51.108;13.622;2023-04-03T00:27:20;101475.25;;;2.83;49.90
68654;BME280;55636;51.108;13.622;2023-04-03T00:28:23;101473.56;;;2.82;50.02
68654;BME280;55636;51.108;13.622;2023-04-03T00:29:26;101471.84;;;2.81;50.03
68654;BME280;55636;51.108;13.622;2023-04-03T00:30:28;101484.66;;;2.80;50.05
68654;BME280;55636;51.108;13.622;2023-04-03T00:31:30;101481.94;;;2.80;49.98
68654;BME280;55636;51.108;13.622;2023-04-03T00:32:33;101491.16;;;2.79;49.92
68654;BME280;55636;51.108;13.622;2023-04-03T00:33:35;101474.91;;;2.77;49.73
68654;BME280;55636;51.108;13.622;2023-04-03T00:34:38;101489.44;;;2.78;49.92
68654;BME280;55636;51.108;13.622;2023-04-03T00:35:40;101484.31;;;2.75;49.89
68654;BME280;55636;51.108;13.622;2023-04-03T00:36:44;101486.22;;;2.74;49.91
68654;BME280;55636;51.108;13.622;2023-04-03T00:37:47;101488.25;;;2.72;50.09
68654;BME280;55636;51.108;13.622;2023-04-03T00:38:49;101491.81;;;2.73;50.07
68654;BME280;55636;51.108;13.622;2023-04-03T00:39:51;101480.06;;;2.72;50.01
68654;BME280;55636;51.108;13.622;2023-04-03T00:40:53;101480.25;;;2.71;50.01
68654;BME280;55636;51.108;13.622;2023-04-03T00:41:56;101484.00;;;2.70;50.17
68654;BME280;55636;51.108;13.622;2023-04-03T00:42:59;101485.03;;;2.69;50.10
68654;BME280;55636;51.108;13.622;2023-04-03T00:44:19;101487.75;;;2.69;49.99
68654;BME280;55636;51.108;13.622;2023-04-03T00:45:31;101490.50;;;2.69;50.24
68654;BME280;55636;51.108;13.622;2023-04-03T00:46:34;101484.38;;;2.67;50.16
68654;BME280;55636;51.108;13.622;2023-04-03T00:47:38;101486.44;;;2.65;50.18
68654;BME280;55636;51.108;13.622;2023-04-03T00:48:46;101495.63;;;2.64;50.32
68654;BME280;55636;51.108;13.622;2023-04-03T00:49:50;101485.75;;;2.63;50.19
68654;BME280;55636;51.108;13.622;2023-04-03T00:50:54;101488.47;;;2.63;50.04
68654;BME280;55636;51.108;13.622;2023-04-03T00:51:57;101489.53;;;2.62;49.93
68654;BME280;55636;51.108;13.622;2023-04-03T00:53:01;101490.38;;;2.62;50.00
68654;BME280;55636;51.108;13.622;2023-04-03T00:54:05;101484.22;;;2.60;50.11
68654;BME280;55636;51.108;13.622;2023-04-03T00:55:09;101488.00;;;2.59;50.09
68654;BME280;55636;51.108;13.622;2023-04-03T00:56:13;101486.31;;;2.58;49.99
68654;BME280;55636;51.108;13.622;2023-04-03T00:57:19;101490.91;;;2.57;50.05
68654;BME280;55636;51.108;13.622;2023-04-03T00:58:30;101484.78;;;2.55;50.01
68654;BME280;55636;51.108;13.622;2023-04-03T00:59:37;101493.81;;;2.56;50.00
68654;BME280;55636;51.108;13.622;2023-04-03T01:00:47;101493.16;;;2.54;50.02
68654;BME280;55636;51.108;13.622;2023-04-03T01:01:54;101498.63;;;2.54;50.00
68654;BME280;55636;51.108;13.622;2023-04-03T01:02:59;101498.63;;;2.54;49.99
68654;BME280;55636;51.108;13.622;2023-04-03T01:04:03;101490.63;;;2.52;50.05
68654;BME280;55636;51.108;13.622;2023-04-03T01:05:06;101490.63;;;2.52;50.00
68654;BME280;55636;51.108;13.622;2023-04-03T01:06:09;101502.56;;;2.51;50.16
68654;BME280;55636;51.108;13.622;2023-04-03T01:07:17;101501.53;;;2.52;50.30
68654;BME280;55636;51.108;13.622;2023-04-03T01:08:20;101501.53;;;2.52;50.29
68654;BME280;55636;51.108;13.622;2023-04-03T01:09:23;101508.19;;;2.50;50.35
68654;BME280;55636;51.108;13.622;2023-04-03T01:10:26;101500.00;;;2.50;50.12
68654;BME280;55636;51.108;13.622;2023-04-03T01:11:29;101496.41;;;2.49;49.97
68654;BME280;55636;51.108;13.622;2023-04-03T01:12:37;101501.03;;;2.49;49.86
68654;BME280;55636;51.108;13.622;2023-04-03T01:13:41;101498.31;;;2.49;50.05
68654;BME280;55636;51.108;13.622;2023-04-03T01:14:45;101502.06;;;2.48;50.10
68654;BME280;55636;51.108;13.622;2023-04-03T01:15:49;101503.06;;;2.47;49.82
68654;BME280;55636;51.108;13.622;2023-04-03T01:16:53;101507.00;;;2.44;49.96
68654;BME280;55636;51.108;13.622;2023-04-03T01:17:57;101505.97;;;2.45;50.22
68654;BME280;55636;51.108;13.622;2023-04-03T01:19:01;101509.72;;;2.44;50.31
68654;BME280;55636;51.108;13.622;2023-04-03T01:23:02;101513.66;;;2.41;50.25
68654;BME280;55636;51.108;13.622;2023-04-03T01:24:27;101508.41;;;2.40;50.15
68654;BME280;55636;51.108;13.622;2023-04-03T01:25:33;101514.88;;;2.39;49.99
68654;BME280;55636;51.108;13.622;2023-04-03T01:26:36;101516.25;;;2.35;50.00
68654;BME280;55636;51.108;13.622;2023-04-03T01:27:38;101516.25;;;2.35;50.06
68654;BME280;55636;51.108;13.622;2023-04-03T01:28:41;101513.53;;;2.35;50.00
68654;BME280;55636;51.108;13.622;2023-04-03T01:29:43;101512.84;;;2.33;49.93
68654;BME280;55636;51.108;13.622;2023-04-03T01:32:10;101522.09;;;2.32;49.92
68654;BME280;55636;51.108;13.622;2023-04-03T01:33:13;101517.66;;;2.31;49.79
68654;BME280;55636;51.108;13.622;2023-04-03T01:34:16;101519.69;;;2.29;49.84
68654;BME280;55636;51.108;13.622;2023-04-03T01:35:19;101521.56;;;2.28;49.83
68654;BME280;55636;51.108;13.622;2023-04-03T01:36:27;101526.19;;;2.27;49.83
68654;BME280;55636;51.108;13.622;2023-04-03T01:37:32;101519.22;;;2.25;49.94
68654;BME280;55636;51.108;13.622;2023-04-03T01:38:35;101523.81;;;2.24;49.81
68654;BME280;55636;51.108;13.622;2023-04-03T01:39:37;101525.69;;;2.24;49.82
68654;BME280;55636;51.108;13.622;2023-04-03T01:40:40;101522.28;;;2.22;49.80
68654;BME280;55636;51.108;13.622;2023-04-03T01:41:43;101526.91;;;2.21;49.91
68654;BME280;55636;51.108;13.622;2023-04-03T01:42:51;101531.47;;;2.21;49.82
68654;BME280;55636;51.108;13.622;2023-04-03T01:43:54;101527.06;;;2.20;49.91
68654;BME280;55636;51.108;13.622;2023-04-03T01:44:56;101536.09;;;2.20;49.88
68654;BME280;55636;51.108;13.622;2023-04-03T01:45:59;101530.13;;;2.17;49.91
68654;BME280;55636;51.108;13.622;2023-04-03T01:47:02;101526.56;;;2.16;50.17
68654;BME280;55636;51.108;13.622;2023-04-03T01:48:07;101533.88;;;2.16;50.06
68654;BME280;55636;51.108;13.622;2023-04-03T01:49:10;101530.50;;;2.14;50.00
68654;BME280;55636;51.108;13.622;2023-04-03T01:50:12;101536.97;;;2.13;49.98
68654;BME280;55636;51.108;13.622;2023-04-03T01:51:15;101532.53;;;2.12;50.05
68654;BME280;55636;51.108;13.622;2023-04-03T01:52:18;101536.47;;;2.09;50.24
68654;BME280;55636;51.108;13.622;2023-04-03T01:53:21;101544.81;;;2.07;50.32
68654;BME280;55636;51.108;13.622;2023-04-03T01:54:23;101535.81;;;2.07;50.28
68654;BME280;55636;51.108;13.622;2023-04-03T01:55:26;101543.13;;;2.06;50.14
68654;BME280;55636;51.108;13.622;2023-04-03T01:56:29;101547.72;;;2.06;50.00
68654;BME280;55636;51.108;13.622;2023-04-03T01:57:31;101539.72;;;2.04;50.15
68654;BME280;55636;51.108;13.622;2023-04-03T01:58:34;101545.38;;;2.03;50.12
68654;BME280;55636;51.108;13.622;2023-04-03T01:59:36;101545.38;;;2.03;50.11
68654;BME280;55636;51.108;13.622;2023-04-03T02:00:39;101544.69;;;2.01;50.01
68654;BME280;55636;51.108;13.622;2023-04-03T02:01:42;101545.69;;;2.00;50.13
68654;BME280;55636;51.108;13.622;2023-04-03T02:02:45;101544.84;;;1.99;50.27
68654;BME280;55636;51.108;13.622;2023-04-03T02:03:48;101546.91;;;1.97;50.18
68654;BME280;55636;51.108;13.622;2023-04-03T02:04:51;101545.19;;;1.96;50.18
68654;BME280;55636;51.108;13.622;2023-04-03T02:05:54;101551.50;;;1.97;50.12
68654;BME280;55636;51.108;13.622;2023-04-03T02:06:56;101546.38;;;1.93;50.11
68654;BME280;55636;51.108;13.622;2023-04-03T02:08:00;101552.88;;;1.92;50.09
68654;BME280;55636;51.108;13.622;2023-04-03T02:09:04;101546.56;;;1.92;50.21
68654;BME280;55636;51.108;13.622;2023-04-03T02:10:07;101548.47;;;1.91;50.15
68654;BME280;55636;51.108;13.622;2023-04-03T02:11:09;101558.47;;;1.91;50.14
68654;BME280;55636;51.108;13.622;2023-04-03T02:12:12;101553.22;;;1.89;50.23
68654;BME280;55636;51.108;13.622;2023-04-03T02:13:15;101555.94;;;1.89;50.19
68654;BME280;55636;51.108;13.622;2023-04-03T02:14:17;101552.56;;;1.87;50.13
68654;BME280;55636;51.108;13.622;2023-04-03T02:15:20;101559.03;;;1.86;50.15
68654;BME280;55636;51.108;13.622;2023-04-03T02:16:24;101552.88;;;1.84;50.19
68654;BME280;55636;51.108;13.622;2023-04-03T02:17:27;101557.50;;;1.84;50.35
68654;BME280;55636;51.108;13.622;2023-04-03T02:18:29;101555.78;;;1.83;50.31
68654;BME280;55636;51.108;13.622;2023-04-03T02:19:31;101556.97;;;1.80;50.22
68654;BME280;55636;51.108;13.622;2023-04-03T02:20:34;101550.69;;;1.80;50.06
68654;BME280;55636;51.108;13.622;2023-04-03T02:21:37;101560.91;;;1.77;50.13
68654;BME280;55636;51.108;13.622;2023-04-03T02:22:39;101563.63;;;1.77;50.38
68654;BME280;55636;51.108;13.622;2023-04-03T02:23:41;101561.09;;;1.76;50.29
68654;BME280;55636;51.108;13.622;2023-04-03T02:24:44;101567.38;;;1.76;50.28
68654;BME280;55636;51.108;13.622;2023-04-03T02:25:48;101558.34;;;1.76;50.30
68654;BME280;55636;51.108;13.622;2023-04-03T02:26:51;101558.53;;;1.74;50.48
68654;BME280;55636;51.108;13.622;2023-04-03T02:27:53;101554.28;;;1.72;50.32
68654;BME280;55636;51.108;13.622;2023-04-03T02:28:55;101560.75;;;1.71;50.39
68654;BME280;55636;51.108;13.622;2023-04-03T02:29:58;101561.75;;;1.70;50.42
68654;BME280;55636;51.108;13.622;2023-04-03T02:31:00;101563.66;;;1.69;50.54
68654;BME280;55636;51.108;13.622;2023-04-03T02:32:04;101570.94;;;1.69;50.45
68654;BME280;55636;51.108;13.622;2023-04-03T02:33:07;101564.84;;;1.67;50.30
68654;BME280;55636;51.108;13.622;2023-04-03T02:34:10;101565.03;;;1.65;50.45
68654;BME280;55636;51.108;13.622;2023-04-03T02:35:13;101570.63;;;1.64;50.46
68654;BME280;55636;51.108;13.622;2023-04-03T02:36:15;101567.91;;;1.64;50.50
68654;BME280;55636;51.108;13.622;2023-04-03T02:37:25;101569.97;;;1.62;50.48
68654;BME280;55636;51.108;13.622;2023-04-03T02:38:29;101566.53;;;1.59;50.30
68654;BME280;55636;51.108;13.622;2023-04-03T02:39:31;101566.72;;;1.58;50.43
68654;BME280;55636;51.108;13.622;2023-04-03T02:40:34;101566.06;;;1.56;50.36
68654;BME280;55636;51.108;13.622;2023-04-03T02:41:37;101573.53;;;1.54;50.59
68654;BME280;55636;51.108;13.622;2023-04-03T02:42:45;101567.41;;;1.52;50.47
68654;BME280;55636;51.108;13.622;2023-04-03T02:43:48;101573.88;;;1.51;50.50
68654;BME280;55636;51.108;13.622;2023-04-03T02:44:51;101565.03;;;1.49;50.62
68654;BME280;55636;51.108;13.622;2023-04-03T02:45:53;101578.63;;;1.49;50.70
68654;BME280;55636;51.108;13.622;2023-04-03T02:46:55;101576.09;;;1.47;50.58
68654;BME280;55636;51.108;13.622;2023-04-03T02:47:58;101578.13;;;1.45;50.65
68654;BME280;55636;51.108;13.622;2023-04-03T02:49:00;101575.56;;;1.43;50.68
68654;BME280;55636;51.108;13.622;2023-04-03T02:50:03;101573.03;;;1.42;50.62
68654;BME280;55636;51.108;13.622;2023-04-03T02:51:06;101579.50;;;1.41;50.50
68654;BME280;55636;51.108;13.622;2023-04-03T02:52:09;101575.22;;;1.38;50.67
68654;BME280;55636;51.108;13.622;2023-04-03T02:53:11;101571.84;;;1.36;50.69
68654;BME280;55636;51.108;13.622;2023-04-03T02:54:14;101574.72;;;1.35;50.61
68654;BME280;55636;51.108;13.622;2023-04-03T02:55:21;101574.22;;;1.31;50.67
68654;BME280;55636;51.108;13.622;2023-04-03T02:56:27;101581.53;;;1.31;50.70
68654;BME280;55636;51.108;13.622;2023-04-03T02:57:29;101578.28;;;1.27;50.75
68654;BME280;55636;51.108;13.622;2023-04-03T02:58:32;101573.88;;;1.26;50.88
68654;BME280;55636;51.108;13.622;2023-04-03T02:59:36;101581.19;;;1.25;50.85
68654;BME280;55636;51.108;13.622;2023-04-03T03:00:38;101582.19;;;1.24;50.82
68654;BME280;55636;51.108;13.622;2023-04-03T03:01:41;101582.53;;;1.21;50.69
68654;BME280;55636;51.108;13.622;2023-04-03T03:02:43;101581.84;;;1.19;50.72
68654;BME280;55636;51.108;13.622;2023-04-03T03:03:46;101592.91;;;1.18;50.76
68654;BME280;55636;51.108;13.622;2023-04-03T03:04:48;101587.63;;;1.16;50.71
68654;BME280;55636;51.108;13.622;2023-04-03T03:06:04;101587.63;;;1.16;50.84
68654;BME280;55636;51.108;13.622;2023-04-03T03:07:09;101588.81;;;1.14;50.92
68654;BME280;55636;51.108;13.622;2023-04-03T03:08:14;101593.44;;;1.13;50.89
68654;BME280;55636;51.108;13.622;2023-04-03T03:09:19;101591.72;;;1.12;50.81
68654;BME280;55636;51.108;13.622;2023-04-03T03:10:22;101589.34;;;1.09;51.09
68654;BME280;55636;51.108;13.622;2023-04-03T03:11:25;101598.53;;;1.08;51.17
68654;BME280;55636;51.108;13.622;2023-04-03T03:12:28;101590.53;;;1.06;51.14
68654;BME280;55636;51.108;13.622;2023-04-03T03:13:33;101595.09;;;1.06;51.14
68654;BME280;55636;51.108;13.622;2023-04-03T03:14:36;101587.28;;;1.03;51.16
68654;BME280;55636;51.108;13.622;2023-04-03T03:15:43;101597.31;;;1.02;51.32
68654;BME280;55636;51.108;13.622;2023-04-03T03:16:46;101599.19;;;1.02;51.32
68654;BME280;55636;51.108;13.622;2023-04-03T03:17:51;101597.66;;;0.99;51.17
68654;BME280;55636;51.108;13.622;2023-04-03T03:18:54;101591.38;;;0.99;51.22
68654;BME280;55636;51.108;13.622;2023-04-03T03:19:59;101597.81;;;0.98;51.36
68654;BME280;55636;51.108;13.622;2023-04-03T03:21:03;101602.56;;;0.96;51.32
68654;BME280;55636;51.108;13.622;2023-04-03T03:22:07;101596.44;;;0.93;51.21
68654;BME280;55636;51.108;13.622;2023-04-03T03:23:09;101598.47;;;0.91;51.25
68654;BME280;55636;51.108;13.622;2023-04-03T03:24:12;101596.78;;;0.90;51.44
68654;BME280;55636;51.108;13.622;2023-04-03T03:25:14;101595.94;;;0.90;51.50
68654;BME280;55636;51.108;13.622;2023-04-03T03:26:17;101589.78;;;0.88;51.54
68654;BME280;55636;51.108;13.622;2023-04-03T03:27:19;101600.00;;;0.86;51.48
68654;BME280;55636;51.108;13.622;2023-04-03T03:28:22;101597.44;;;0.84;51.45
68654;BME280;55636;51.108;13.622;2023-04-03T03:29:26;101606.63;;;0.83;51.48
68654;BME280;55636;51.108;13.622;2023-04-03T03:30:28;101597.75;;;0.81;51.49
68654;BME280;55636;51.108;13.622;2023-04-03T03:31:31;101604.38;;;0.78;51.50
68654;BME280;55636;51.108;13.622;2023-04-03T03:32:33;101601.00;;;0.76;51.73
68654;BME280;55636;51.108;13.622;2023-04-03T03:33:36;101594.03;;;0.74;51.76
68654;BME280;55636;51.108;13.622;2023-04-03T03:34:38;101599.78;;;0.71;51.69
68654;BME280;55636;51.108;13.622;2023-04-03T03:35:41;101598.94;;;0.70;51.81
68654;BME280;55636;51.108;13.622;2023-04-03T03:36:44;101605.56;;;0.68;51.89
68654;BME280;55636;51.108;13.622;2023-04-03T03:37:46;101606.72;;;0.65;52.15
68654;BME280;55636;51.108;13.622;2023-04-03T03:38:49;101597.88;;;0.63;52.07
68654;BME280;55636;51.108;13.622;2023-04-03T03:39:51;101599.06;;;0.60;51.98
68654;BME280;55636;51.108;13.622;2023-04-03T03:40:54;101601.78;;;0.60;52.04
68654;BME280;55636;51.108;13.622;2023-04-03T03:41:57;101604.84;;;0.57;52.16
68654;BME280;55636;51.108;13.622;2023-04-03T03:43:00;101597.69;;;0.56;52.17
68654;BME280;55636;51.108;13.622;2023-04-03T03:44:03;101608.56;;;0.56;52.15
68654;BME280;55636;51.108;13.622;2023-04-03T03:45:07;101607.03;;;0.54;52.38
68654;BME280;55636;51.108;13.622;2023-04-03T03:46:10;101607.19;;;0.52;52.28
68654;BME280;55636;51.108;13.622;2023-04-03T03:47:12;101611.94;;;0.50;52.44
68654;BME280;55636;51.108;13.622;2023-04-03T03:48:15;101608.38;;;0.50;52.48
68654;BME280;55636;51.108;13.622;2023-04-03T03:49:17;101610.56;;;0.46;52.67
68654;BME280;55636;51.108;13.622;2023-04-03T03:50:19;101615.16;;;0.46;52.62
68654;BME280;55636;51.108;13.622;2023-04-03T03:51:22;101616.16;;;0.44;52.55
68654;BME280;55636;51.108;13.622;2023-04-03T03:52:25;101613.59;;;0.43;52.53
68654;BME280;55636;51.108;13.622;2023-04-03T03:53:28;101609.19;;;0.42;52.66
68654;BME280;55636;51.108;13.622;2023-04-03T03:54:34;101614.94;;;0.39;52.61
68654;BME280;55636;51.108;13.622;2023-04-03T03:55:37;101608.66;;;0.38;52.51
68654;BME280;55636;51.108;13.622;2023-04-03T03:56:41;101607.81;;;0.38;52.77
68654;BME280;55636;51.108;13.622;2023-04-03T03:57:43;101612.41;;;0.37;52.72
68654;BME280;55636;51.108;13.622;2023-04-03T03:58:47;101611.00;;;0.33;52.93
68654;BME280;55636;51.108;13.622;2023-04-03T03:59:49;101611.88;;;0.34;52.77
68654;BME280;55636;51.108;13.622;2023-04-03T04:00:53;101613.03;;;0.31;52.96
68654;BME280;55636;51.108;13.622;2023-04-03T04:01:56;101614.88;;;0.31;53.05
68654;BME280;55636;51.108;13.622;2023-04-03T04:02:59;101616.94;;;0.28;53.07
68654;BME280;55636;51.108;13.622;2023-04-03T04:04:05;101609.63;;;0.29;53.15
68654;BME280;55636;51.108;13.622;2023-04-03T04:05:07;101618.94;;;0.26;53.14
68654;BME280;55636;51.108;13.622;2023-04-03T04:06:10;101610.78;;;0.26;53.08
68654;BME280;55636;51.108;13.622;2023-04-03T04:07:12;101607.56;;;0.23;53.15
68654;BME280;55636;51.108;13.622;2023-04-03T04:08:14;101613.84;;;0.23;53.22
68654;BME280;55636;51.108;13.622;2023-04-03T04:09:19;101613.16;;;0.21;53.20
68654;BME280;55636;51.108;13.622;2023-04-03T04:10:21;101621.47;;;0.20;53.21
68654;BME280;55636;51.108;13.622;2023-04-03T04:11:24;101614.31;;;0.19;53.29
68654;BME280;55636;51.108;13.622;2023-04-03T04:12:28;101604.63;;;0.16;53.14
68654;BME280;55636;51.108;13.622;2023-04-03T04:13:30;101619.25;;;0.15;53.30
68654;BME280;55636;51.108;13.622;2023-04-03T04:14:33;101618.53;;;0.13;53.48
68654;BME280;55636;51.108;13.622;2023-04-03T04:15:35;101616.84;;;0.12;53.41
68654;BME280;55636;51.108;13.622;2023-04-03T04:16:38;101614.28;;;0.10;53.50
68654;BME280;55636;51.108;13.622;2023-04-03T04:17:48;101620.72;;;0.09;53.66
68654;BME280;55636;51.108;13.622;2023-04-03T04:18:51;101620.03;;;0.07;53.54
68654;BME280;55636;51.108;13.622;2023-04-03T04:19:54;101620.03;;;0.07;53.37
68654;BME280;55636;51.108;13.622;2023-04-03T04:20:56;101622.91;;;0.06;53.48
68654;BME280;55636;51.108;13.622;2023-04-03T04:21:59;101628.50;;;0.04;53.58
68654;BME280;55636;51.108;13.622;2023-04-03T04:23:01;101635.09;;;0.02;53.67
68654;BME280;55636;51.108;13.622;2023-04-03T04:24:05;101633.56;;;-0.01;53.56
68654;BME280;55636;51.108;13.622;2023-04-03T04:25:08;101631.00;;;-0.02;53.70
68654;BME280;55636;51.108;13.622;2023-04-03T04:26:12;101637.78;;;-0.07;53.64
68654;BME280;55636;51.108;13.622;2023-04-03T04:27:15;101634.22;;;-0.07;53.75
68654;BME280;55636;51.108;13.622;2023-04-03T04:28:18;101631.63;;;-0.09;53.73
68654;BME280;55636;51.108;13.622;2023-04-03T04:29:23;101639.09;;;-0.11;53.69
68654;BME280;55636;51.108;13.622;2023-04-03T04:30:26;101640.13;;;-0.12;53.65
68654;BME280;55636;51.108;13.622;2023-04-03T04:31:31;101635.84;;;-0.14;53.72
68654;BME280;55636;51.108;13.622;2023-04-03T04:32:33;101637.84;;;-0.16;53.76
68654;BME280;55636;51.108;13.622;2023-04-03T04:33:36;101640.75;;;-0.18;53.76
68654;BME280;55636;51.108;13.622;2023-04-03T04:34:41;101638.19;;;-0.19;53.76
68654;BME280;55636;51.108;13.622;2023-04-03T04:35:43;101637.47;;;-0.22;53.69
68654;BME280;55636;51.108;13.622;2023-04-03T04:36:46;101645.78;;;-0.23;53.56
68654;BME280;55636;51.108;13.622;2023-04-03T04:37:49;101643.41;;;-0.26;53.69
68654;BME280;55636;51.108;13.622;2023-04-03T04:38:52;101648.00;;;-0.27;53.60
68654;BME280;55636;51.108;13.622;2023-04-03T04:39:57;101642.84;;;-0.30;53.78
68654;BME280;55636;51.108;13.622;2023-04-03T04:40:59;101652.00;;;-0.31;53.85
68654;BME280;55636;51.108;13.622;2023-04-03T04:42:02;101648.63;;;-0.33;53.71
68654;BME280;55636;51.108;13.622;2023-04-03T04:43:07;101648.78;;;-0.34;53.74
68654;BME280;55636;51.108;13.622;2023-04-03T04:44:10;101653.66;;;-0.38;53.74
68654;BME280;55636;51.108;13.622;2023-04-03T04:45:13;101650.94;;;-0.38;53.78
68654;BME280;55636;51.108;13.622;2023-04-03T04:46:19;101651.09;;;-0.40;53.81
68654;BME280;55636;51.108;13.622;2023-04-03T04:47:28;101656.66;;;-0.41;53.81
68654;BME280;55636;51.108;13.622;2023-04-03T04:48:31;101664.97;;;-0.43;53.80
68654;BME280;55636;51.108;13.622;2023-04-03T04:49:34;101658.88;;;-0.45;53.98
68654;BME280;55636;51.108;13.622;2023-04-03T04:50:36;101658.00;;;-0.45;53.94
68654;BME280;55636;51.108;13.622;2023-04-03T04:51:39;101654.59;;;-0.47;54.00
68654;BME280;55636;51.108;13.622;2023-04-03T04:52:55;101667.47;;;-0.49;54.10
68654;BME280;55636;51.108;13.622;2023-04-03T04:53:57;101669.34;;;-0.50;54.13
68654;BME280;55636;51.108;13.622;2023-04-03T04:55:00;101664.91;;;-0.51;54.12
68654;BME280;55636;51.108;13.622;2023-04-03T04:56:03;101665.75;;;-0.50;54.10
68654;BME280;55636;51.108;13.622;2023-04-03T04:57:06;101668.78;;;-0.53;54.07
68654;BME280;55636;51.108;13.622;2023-04-03T04:58:09;101665.38;;;-0.56;54.21
68654;BME280;55636;51.108;13.622;2023-04-03T04:59:12;101668.94;;;-0.55;54.12
68654;BME280;55636;51.108;13.622;2023-04-03T05:00:15;101665.53;;;-0.57;54.17
68654;BME280;55636;51.108;13.622;2023-04-03T05:01:17;101671.81;;;-0.57;54.16
68654;BME280;55636;51.108;13.622;2023-04-03T05:02:30;101670.09;;;-0.58;54.26
68654;BME280;55636;51.108;13.622;2023-04-03T05:03:36;101670.41;;;-0.61;54.31
68654;BME280;55636;51.108;13.622;2023-04-03T05:04:39;101668.72;;;-0.62;54.18
68654;BME280;55636;51.108;13.622;2023-04-03T05:05:47;101669.88;;;-0.64;54.30
68654;BME280;55636;51.108;13.622;2023-04-03T05:06:50;101677.16;;;-0.65;54.35
68654;BME280;55636;51.108;13.622;2023-04-03T05:07:57;101676.31;;;-0.65;54.34
68654;BME280;55636;51.108;13.622;2023-04-03T05:08:59;101677.31;;;-0.66;54.29
68654;BME280;55636;51.108;13.622;2023-04-03T05:10:05;101673.91;;;-0.68;54.39
68654;BME280;55636;51.108;13.622;2023-04-03T05:11:08;101673.03;;;-0.69;54.41
68654;BME280;55636;51.108;13.622;2023-04-03T05:12:11;101676.75;;;-0.70;54.47
68654;BME280;55636;51.108;13.622;2023-04-03T05:13:21;101680.50;;;-0.71;54.58
68654;BME280;55636;51.108;13.622;2023-04-03T05:14:23;101675.91;;;-0.70;54.49
68654;BME280;55636;51.108;13.622;2023-04-03T05:15:27;101677.78;;;-0.71;54.66
68654;BME280;55636;51.108;13.622;2023-04-03T05:16:29;101681.34;;;-0.70;54.57
68654;BME280;55636;51.108;13.622;2023-04-03T05:17:32;101684.22;;;-0.72;54.52
68654;BME280;55636;51.108;13.622;2023-04-03T05:18:35;101679.78;;;-0.73;54.72
68654;BME280;55636;51.108;13.622;2023-04-03T05:19:42;101684.22;;;-0.72;54.77
68654;BME280;55636;51.108;13.622;2023-04-03T05:20:48;101681.66;;;-0.74;54.84
68654;BME280;55636;51.108;13.622;2023-04-03T05:21:52;101683.34;;;-0.73;54.76
68654;BME280;55636;51.108;13.622;2023-04-03T05:22:57;101683.50;;;-0.74;54.84
68654;BME280;55636;51.108;13.622;2023-04-03T05:24:00;101680.78;;;-0.74;54.88
68654;BME280;55636;51.108;13.622;2023-04-03T05:25:07;101677.91;;;-0.73;54.86
68654;BME280;55636;51.108;13.622;2023-04-03T05:26:10;101689.47;;;-0.70;55.09
68654;BME280;55636;51.108;13.622;2023-04-03T05:27:13;101687.47;;;-0.68;55.16
68654;BME280;55636;51.108;13.622;2023-04-03T05:28:19;101689.88;;;-0.65;55.30
68654;BME280;55636;51.108;13.622;2023-04-03T05:29:24;101685.00;;;-0.62;55.57
68654;BME280;55636;51.108;13.622;2023-04-03T05:30:27;101691.81;;;-0.58;55.73
68654;BME280;55636;51.108;13.622;2023-04-03T05:31:29;101691.22;;;-0.51;55.75
68654;BME280;55636;51.108;13.622;2023-04-03T05:32:32;101695.16;;;-0.46;55.82
68654;BME280;55636;51.108;13.622;2023-04-03T05:33:47;101689.13;;;-0.40;56.06
68654;BME280;55636;51.108;13.622;2023-04-03T05:34:52;101689.34;;;-0.33;55.99
68654;BME280;55636;51.108;13.622;2023-04-03T05:35:55;101690.28;;;-0.24;56.01